Ana Sayfa
METAR-TAF:

METAR-TAF

Havaalanları :

Tsushima, Japonya

Enlem: 34-17N, Boylam: 129-20E, yükseklik: 63 m

Güncel hava durumu gözlemi

Rapor saat 06:00 UTC de 1 saat ve 12 dakika önce yapıldı.
Rüzgar batı/kuzeybatıdan 12 kt, batı/güneybatı ve kuzey/kuzeybatı arasında değişken
Sıcaklık 6°C
Nem 42%
Basınç 1017 hPa
Görüş mesafesi 10 km veya daha fazla
3500 ft yükseklikte az bulutlu
parçalı çok bulutlu

METAR: RJDT 010600Z 30012KT 250V340 9999 FEW035 BKN/// 06/M06 Q1017

Saat: 16:12 (07:12 UTC)


TAF: eksik

4.000'den fazla havaalanı için hava durumu gözlemleri ve tahminleri (METAR ve TAF raporları).

Kullanılabilir istasyonlar harita üzerinde sarı ve kırmızı noktalarla gösterilir.

İstasyonun adını görmek için fareyi noktanın üzerinde gezdirin.

Sonrasında hava gözlem ve tahminlerini görmek için tıklayın.

Haritayı değiştirmek için: yaklaştırmak için siyah artı işaretli yeşil düğmeye ve uzaklaştırmak için de eksi işaretli düğmeye hızla tıklayın; bitişik haritalar için yeşil okları kullanın.


METAR-TAF: